Nearby METAR Reports

 

KSJC - San Jose, California, USA
Distance from station: NE 9mi, 14km
Updated: Fri, 16-Nov-2018 12:53pm EST
Smoke, Haze, Overcast
Smoke, Haze, Overcast
 Wind from SW
Wind: SW 3 mph , 6 km/h
Temperature: 54°F , 12°C
Dew Point: 32°F , 0°C
Humidity: 44%
Barometer: 30.04 inHg , 1017.3 hPa
Summary: Smoke, Haze
Clouds: Overcast
Visibility: 2 miles , 3 km
Cloud details: Few Clouds 100 ft
Mostly cloudy 600 ft
Overcast 1500 ft
2018/11/16 17:53 KSJC 161753Z 22003KT 2SM FU HZ FEW001 BKN006 OVC015 12/00 A3004 RMK AO2 SLP172 FU FEW001 FU BKN006 FU OVC015 T01220000 10122 20044 50002
KNUQ - Moffett Nas/Mtn, California, USA
Distance from station: N 9mi, 14km
Updated: Fri, 16-Nov-2018 1:37pm EST
Smoke, Partly cloudy
Smoke, Partly cloudy
 Wind from N
Wind: N 5 mph , 7 km/h
Temperature: 57°F , 14°C
Dew Point: 36°F , 2°C
Humidity: 44%
Barometer: 30.05 inHg , 1017.6 hPa
Summary: Smoke
Clouds: Partly cloudy
Visibility: 1 1/2 miles , 2 km
Cloud details: Partly cloudy 1300 ft
2018/11/16 18:37 KNUQ 161837Z 36004KT 1 1/2SM FU SCT013 14/02 A3005 RMK AO2 T01390022
 
KPAO - Palo Alto, California, USA
Distance from station: NNW 14mi, 23km
Updated: Fri, 16-Nov-2018 11:55am EST
NOT Current
Smoke, Clear
Smoke, Clear
 Wind from calm
Wind: Calm
Temperature: 50°F , 10°C
Dew Point: 39°F , 4°C
Humidity: 67%
Barometer: 30.06 inHg , 1017.9 hPa
Summary: Smoke
Clouds: Clear
Visibility: 1 1/2 miles , 2 km
2018/11/16 16:55 KPAO 161655Z 00000KT 1 1/2SM FU SKC 10/04 A3006
KRHV - San Jose/Reid, California, USA
Distance from station: ENE 12mi, 19km
Updated: Fri, 16-Nov-2018 12:47pm EST
Smoke, Mostly cloudy
Smoke, Mostly cloudy
 Wind from calm
Wind: Calm
Temperature: 55°F , 13°C
Dew Point: 36°F , 2°C
Humidity: 47%
Barometer: 30.02 inHg , 1016.6 hPa
Summary: Smoke
Clouds: Mostly cloudy
Visibility: 1 1/2 miles , 2 km
Cloud details: Mostly cloudy 800 ft
Mostly cloudy 1200 ft
2018/11/16 17:47 KRHV 161747Z 00000KT 1 1/2SM FU BKN008 BKN012 13/02 A3002
 
KOAK - Oakland, California, USA
Distance from station: NNW 31mi, 50km
Updated: Fri, 16-Nov-2018 12:53pm EST
Haze, Overcast
Haze, Overcast
 Wind from SSW
Wind: SSW 5 mph , 7 km/h
Temperature: 55°F , 13°C
Dew Point: 41°F , 5°C
Humidity: 59%
Barometer: 30.05 inHg , 1017.6 hPa
Summary: Haze
Clouds: Overcast
Visibility: 2 miles , 3 km
Cloud details: Mostly cloudy 1600 ft
Overcast 2000 ft
2018/11/16 17:53 KOAK 161753Z 20004KT 2SM HZ BKN016 OVC020 13/05 A3005 RMK AO2 SLP176 FU BKN016 FU OVC020 T01280050 10128 20022 50006
KSQL - San Carlos Airpo, California, USA
Distance from station: NW 21mi, 34km
Updated: Fri, 16-Nov-2018 9:55am EST
NOT Current
Haze, Overcast
Haze, Overcast
 Wind from calm
Wind: Calm
Temperature: 45°F , 7°C
Dew Point: 37°F , 3°C
Humidity: 76%
Barometer: 30.03 inHg , 1016.9 hPa
Summary: Haze
Clouds: Overcast
Visibility: 1 1/2 miles , 2 km
Cloud details: Overcast 2000 ft
2018/11/16 14:55 KSQL 161455Z AUTO 00000KT 1 1/2SM HZ OVC020 07/03 A3003 RMK AO2
 
KSFO - San Francisco, California, USA
Distance from station: NW 30mi, 49km
Updated: Fri, 16-Nov-2018 12:56pm EST
Smoke, Mostly cloudy
Smoke, Mostly cloudy
 Wind from varies
Wind: varies 3 mph , 6 km/h
Temperature: 55°F , 13°C
Dew Point: 36°F , 2°C
Humidity: 47%
Barometer: 30.04 inHg , 1017.3 hPa
Summary: Smoke
Clouds: Mostly cloudy
Visibility: 1 1/2 miles , 2 km
Cloud details: Mostly cloudy 2900 ft
2018/11/16 17:56 KSFO 161756Z VRB03KT 1 1/2SM FU BKN029 13/02 A3004 RMK AO2 SLP171 T01280017 10133 20067 50004
KE16 - San Martin, California, USA
Distance from station: ESE 27mi, 43km
Updated: Fri, 16-Nov-2018 1:15pm EST
Haze, Clear
Haze, Clear
 Wind from NNW
Wind: NNW 3 mph , 6 km/h
Temperature: 55°F , 13°C
Dew Point: 32°F , 0°C
Humidity: 41%
Barometer: 30.05 inHg , 1017.6 hPa
Summary: Haze
Clouds: Clear
Visibility: 2 1/2 miles , 2 km
2018/11/16 18:15 KE16 161815Z AUTO 34003KT 2 1/2SM HZ CLR 13/00 A3005 RMK AO2
 
KWVI - Watsonville, California, USA
Distance from station: SSE 27mi, 44km
Updated: Fri, 16-Nov-2018 12:53pm EST
Haze, Clear
Haze, Clear
 Wind from calm
Wind: Calm
Temperature: 57°F , 14°C
Dew Point: 28°F , -2°C
Humidity: 33%
Barometer: 30.02 inHg , 1016.6 hPa
Summary: Haze
Clouds: Clear
Visibility: 3 miles , 5 km
2018/11/16 17:53 KWVI 161753Z AUTO 00000KT 3SM HZ CLR 14/M02 A3002 RMK AO2 SLP165 T01391022 10144 20039 50003
KHAF - Half Moon Bay, California, USA
Distance from station: WNW 31mi, 50km
Updated: Fri, 16-Nov-2018 1:40pm EST
Haze, Clear
Haze, Clear
 Wind from W
Wind: W 6 mph , 9 km/h
Temperature: 61°F , 16°C
Dew Point: 34°F , 1°C
Humidity: 36%
Barometer: 30.02 inHg , 1016.6 hPa
Summary: Haze
Clouds: Clear
Visibility: 2 miles , 3 km
2018/11/16 18:40 KHAF 161840Z AUTO 27005KT 2SM HZ CLR 16/01 A3002 RMK AO2
 
KHWD - Hayward, California, USA
Distance from station: N 28mi, 44km
Updated: Fri, 16-Nov-2018 12:54pm EST
Haze, Smoke, Clear
Haze, Smoke, Clear
 Wind from SSW
Wind: SSW 3 mph , 6 km/h
Temperature: 57°F , 14°C
Dew Point: 39°F , 4°C
Humidity: 51%
Barometer: 30.04 inHg , 1017.3 hPa
Summary: Haze, Smoke
Clouds: Clear
Visibility: 1 mile , 2 km
2018/11/16 17:54 KHWD 161754Z 20003KT 1SM HZ FU CLR 14/04 A3004 RMK AO2 SLP181 T01390039 10139 20061 50002
KLVK - Livermore, California, USA
Distance from station: NNE 31mi, 51km
Updated: Fri, 16-Nov-2018 1:45pm EST
Haze, Smoke, Clear
Haze, Smoke, Clear
 Wind from SW
Wind: SW 3 mph , 6 km/h
Temperature: 55°F , 13°C
Dew Point: 30°F , -1°C
Humidity: 38%
Barometer: 30.04 inHg , 1017.3 hPa
Summary: Haze, Smoke
Clouds: Clear
Visibility: 3/4 mile , 5 km
2018/11/16 18:45 KLVK 161845Z 23003KT 3/4SM HZ FU CLR 13/M01 A3004 RMK AO2 T01281011